Whitson, Texas
Current Conditions -  °F | °C
As of 8:55 PM on Thursday 18 Dec 2014 (Local Time) from KTPL Reporting Station
Overcast Overcast  
Wind Chill: 44°   Ceiling: 800
Heat Index: 48°   Visibility: 10mi
Dew Point: 43°   Wind: 10mph
Humidity: 82%   Direction: 30°NNE
Pressure: 30.12"   Gusts: NA
Location:  31.2688°N, 97.3985°W
Report Text: KTPL 190255Z AUTO 03009KT 10SM OVC008 09/06 A3012 RMK AO1 52007
Loading
Personal Weather Stations






























Interactive Weather Map New forecast layout! Learn more

10-Day Weather Forecast

Advertisements
Track Severe Weather on mobile